Time;durP1;ratioP1;P1;durP2;ratioP2;P2;SDS_P1;SDS_P2;PMS_P1;PMS_P2;Temp;Humidity;BMP_temperature;BMP_pressure;BME280_temperature;BME280_humidity;BME280_pressure;Samples;Min_cycle;Max_cycle;Signal;HPM_P1;HPM_P2
2022/11/13 00:01:59;;;;;;;10.38;7.10;;;;;;;;;;6065197;23;20011;-41
2022/11/13 00:04:25;;;;;;;9.60;6.63;;;;;;;;;;6064691;23;20074;-42
2022/11/13 00:06:50;;;;;;;10.13;6.47;;;;;;;;;;6064756;23;20007;-39
2022/11/13 00:09:15;;;;;;;12.95;9.27;;;;;;;;;;6064956;23;20450;-39
2022/11/13 00:11:41;;;;;;;9.63;6.63;;;;;;;;;;6064631;23;20006;-39
2022/11/13 00:14:06;;;;;;;7.80;5.28;;;;;;;;;;6064925;23;20015;-41
2022/11/13 00:16:31;;;;;;;7.22;5.18;;;;;;;;;;6065454;23;20375;-39
2022/11/13 00:18:57;;;;;;;8.20;5.78;;;;;;;;;;6064513;23;20383;-40
2022/11/13 00:21:24;;;;;;;6.38;5.47;;;;;;;;;;6065164;23;20086;-40
2022/11/13 00:23:50;;;;;;;8.13;5.47;;;;;;;;;;6064431;23;20023;-40
2022/11/13 00:26:22;;;;;;;6.00;4.65;;;;;;;;;;6064500;23;20049;-41
2022/11/13 00:28:55;;;;;;;7.22;5.47;;;;;;;;;;6064811;23;20018;-39
2022/11/13 00:31:21;;;;;;;6.70;4.60;;;;;;;;;;6064958;23;20504;-39
2022/11/13 00:33:47;;;;;;;8.88;4.80;;;;;;;;;;6064641;23;20026;-39
2022/11/13 00:36:18;;;;;;;4.72;4.32;;;;;;;;;;6065035;23;20002;-39
2022/11/13 00:38:44;;;;;;;5.10;4.60;;;;;;;;;;6064769;23;20023;-39
2022/11/13 00:41:09;;;;;;;5.57;4.50;;;;;;;;;;6065669;23;20698;-39
2022/11/13 00:43:35;;;;;;;8.15;4.40;;;;;;;;;;6066350;23;20025;-39
2022/11/13 00:46:00;;;;;;;5.35;4.50;;;;;;;;;;6066962;23;20094;-39
2022/11/13 00:48:26;;;;;;;4.95;4.30;;;;;;;;;;6066328;23;20520;-39
2022/11/13 00:50:51;;;;;;;7.28;5.10;;;;;;;;;;6066386;23;20010;-40
2022/11/13 00:53:17;;;;;;;5.97;3.90;;;;;;;;;;6066525;23;20528;-39
2022/11/13 00:55:43;;;;;;;4.40;4.00;;;;;;;;;;6065825;23;20058;-42
2022/11/13 00:58:09;;;;;;;4.72;3.92;;;;;;;;;;6040843;23;20007;-40
2022/11/13 01:00:35;;;;;;;3.95;3.55;;;;;;;;;;6066441;23;20013;-39
2022/11/13 01:03:01;;;;;;;4.85;3.60;;;;;;;;;;6065873;23;20098;-39
2022/11/13 01:05:26;;;;;;;6.47;4.63;;;;;;;;;;6066037;23;20007;-40
2022/11/13 01:07:52;;;;;;;5.03;3.58;;;;;;;;;;6066411;23;20050;-40
2022/11/13 01:10:18;;;;;;;6.13;4.15;;;;;;;;;;6065398;23;19999;-38
2022/11/13 01:12:44;;;;;;;5.32;4.13;;;;;;;;;;6066500;23;20043;-39
2022/11/13 01:15:09;;;;;;;7.45;4.10;;;;;;;;;;6065888;23;20055;-39
2022/11/13 01:17:35;;;;;;;7.15;3.67;;;;;;;;;;6066769;23;20448;-39
2022/11/13 01:20:00;;;;;;;7.93;3.10;;;;;;;;;;6065907;23;20039;-40
2022/11/13 01:22:25;;;;;;;5.00;3.78;;;;;;;;;;6066194;23;20081;-39
2022/11/13 01:24:51;;;;;;;4.13;3.42;;;;;;;;;;6065142;23;20055;-39
2022/11/13 01:27:16;;;;;;;4.65;3.47;;;;;;;;;;6066046;23;20062;-39
2022/11/13 01:29:42;;;;;;;6.68;3.60;;;;;;;;;;6065563;23;20098;-39
2022/11/13 01:32:07;;;;;;;4.55;3.17;;;;;;;;;;6066732;23;20037;-41
2022/11/13 01:34:33;;;;;;;5.90;3.65;;;;;;;;;;6065209;23;20023;-39
2022/11/13 01:36:58;;;;;;;6.82;3.40;;;;;;;;;;6066319;23;20003;-39
2022/11/13 01:39:24;;;;;;;6.65;3.30;;;;;;;;;;6065256;23;20095;-39
2022/11/13 01:41:49;;;;;;;5.45;3.22;;;;;;;;;;6066550;23;20041;-39
2022/11/13 01:44:17;;;;;;;5.05;3.42;;;;;;;;;;6065820;23;20103;-39
2022/11/13 01:46:45;;;;;;;4.97;3.67;;;;;;;;;;6066858;23;20094;-38
2022/11/13 01:49:16;;;;;;;6.15;3.40;;;;;;;;;;6065420;23;20050;-39
2022/11/13 01:51:48;;;;;;;4.80;3.00;;;;;;;;;;6066187;23;20010;-41
2022/11/13 01:54:17;;;;;;;3.30;3.00;;;;;;;;;;6065492;23;20090;-39
2022/11/13 01:56:43;;;;;;;3.25;2.92;;;;;;;;;;6065814;23;20070;-39
2022/11/13 01:59:16;;;;;;;3.85;3.00;;;;;;;;;;6065851;23;20050;-39
2022/11/13 02:01:42;;;;;;;5.63;3.03;;;;;;;;;;6066257;23;20097;-39
2022/11/13 02:04:07;;;;;;;5.25;3.08;;;;;;;;;;6065049;23;20391;-39
2022/11/13 02:06:41;;;;;;;3.70;2.60;;;;;;;;;;6065957;23;20021;-39
2022/11/13 02:09:08;;;;;;;3.40;2.75;;;;;;;;;;6064979;23;20090;-39
2022/11/13 02:11:34;;;;;;;4.30;2.72;;;;;;;;;;6065759;23;20009;-39
2022/11/13 02:14:01;;;;;;;3.67;2.58;;;;;;;;;;6065391;23;20019;-40
2022/11/13 02:16:29;;;;;;;2.88;2.60;;;;;;;;;;6065566;23;20010;-40
2022/11/13 02:18:55;;;;;;;3.78;2.58;;;;;;;;;;6064918;23;20015;-39
2022/11/13 02:21:48;;;;;;;4.38;2.67;;;;;;;;;;6066334;23;20438;-41
2022/11/13 02:24:29;;;;;;;3.85;2.38;;;;;;;;;;6064750;23;20038;-39
2022/11/13 02:26:59;;;;;;;6.20;2.55;;;;;;;;;;6066132;23;20007;-42
2022/11/13 02:29:25;;;;;;;2.65;2.45;;;;;;;;;;6065170;23;20018;-39
2022/11/13 02:31:50;;;;;;;3.25;2.60;;;;;;;;;;6065886;23;19998;-39
2022/11/13 02:34:15;;;;;;;9.02;2.10;;;;;;;;;;6065141;23;20021;-39
2022/11/13 02:36:41;;;;;;;4.68;2.50;;;;;;;;;;6066111;23;20011;-39
2022/11/13 02:39:11;;;;;;;2.95;2.67;;;;;;;;;;6064844;23;20035;-39
2022/11/13 02:41:37;;;;;;;4.00;2.00;;;;;;;;;;6065608;23;20007;-40
2022/11/13 02:44:06;;;;;;;3.90;2.47;;;;;;;;;;6065401;23;20096;-39
2022/11/13 02:46:33;;;;;;;2.58;2.13;;;;;;;;;;6065338;23;20007;-39
2022/11/13 02:48:58;;;;;;;3.33;2.28;;;;;;;;;;6065101;23;20023;-38
2022/11/13 02:51:24;;;;;;;4.47;2.63;;;;;;;;;;6065688;23;20015;-39
2022/11/13 02:53:49;;;;;;;2.30;2.10;;;;;;;;;;6064412;23;20019;-39
2022/11/13 02:56:15;;;;;;;4.47;2.10;;;;;;;;;;6065723;23;20023;-39
2022/11/13 02:58:40;;;;;;;3.63;2.13;;;;;;;;;;6064938;23;20027;-40
2022/11/13 03:01:06;;;;;;;4.70;2.28;;;;;;;;;;6065074;23;20513;-42
2022/11/13 03:03:31;;;;;;;5.22;2.10;;;;;;;;;;6064401;23;20018;-39
2022/11/13 03:05:57;;;;;;;3.00;2.20;;;;;;;;;;6065828;23;20014;-39
2022/11/13 03:08:24;;;;;;;2.17;1.92;;;;;;;;;;6064739;23;20476;-42
2022/11/13 03:10:50;;;;;;;2.95;1.95;;;;;;;;;;6065707;23;20007;-39
2022/11/13 03:13:16;;;;;;;2.42;2.17;;;;;;;;;;6064988;23;20114;-38
2022/11/13 03:15:41;;;;;;;2.55;2.30;;;;;;;;;;6065292;23;20466;-40
2022/11/13 03:18:07;;;;;;;3.72;2.20;;;;;;;;;;6064611;23;20011;-39
2022/11/13 03:20:36;;;;;;;4.05;2.20;;;;;;;;;;6064682;23;20007;-39
2022/11/13 03:23:02;;;;;;;2.20;2.00;;;;;;;;;;6065118;23;20086;-39
2022/11/13 03:25:27;;;;;;;2.55;1.80;;;;;;;;;;6065209;23;20042;-42
2022/11/13 03:27:53;;;;;;;3.00;2.20;;;;;;;;;;6064916;23;20457;-40
2022/11/13 03:30:18;;;;;;;5.63;1.90;;;;;;;;;;6065155;23;20013;-39
2022/11/13 03:32:44;;;;;;;3.65;1.70;;;;;;;;;;6065620;23;20493;-40
2022/11/13 03:35:09;;;;;;;2.95;1.90;;;;;;;;;;6064490;23;20015;-39
2022/11/13 03:37:34;;;;;;;3.15;2.05;;;;;;;;;;6065379;23;20422;-40
2022/11/13 03:40:00;;;;;;;3.00;1.90;;;;;;;;;;6064605;23;20010;-40
2022/11/13 03:42:25;;;;;;;1.65;1.55;;;;;;;;;;6065571;23;20058;-39
2022/11/13 03:44:50;;;;;;;2.90;1.80;;;;;;;;;;6064282;23;20027;-39
2022/11/13 03:47:16;;;;;;;2.70;1.90;;;;;;;;;;6065254;23;20014;-39
2022/11/13 03:49:41;;;;;;;4.20;2.20;;;;;;;;;;6064246;23;20602;-39
2022/11/13 03:52:06;;;;;;;2.88;1.77;;;;;;;;;;6064955;23;20017;-40
2022/11/13 03:54:32;;;;;;;2.15;1.95;;;;;;;;;;6064432;23;20446;-39
2022/11/13 03:56:57;;;;;;;1.75;1.65;;;;;;;;;;6064899;23;20030;-39
2022/11/13 03:59:22;;;;;;;3.10;1.90;;;;;;;;;;6063955;23;20030;-39
2022/11/13 04:01:48;;;;;;;2.22;1.75;;;;;;;;;;6065116;23;20061;-39
2022/11/13 04:04:14;;;;;;;1.92;1.58;;;;;;;;;;6064162;23;20053;-39
2022/11/13 04:06:39;;;;;;;4.45;1.60;;;;;;;;;;6065112;23;20003;-39
2022/11/13 04:09:05;;;;;;;6.03;2.45;;;;;;;;;;6064297;23;20390;-41
2022/11/13 04:11:31;;;;;;;2.63;2.42;;;;;;;;;;6065179;23;20010;-39
2022/11/13 04:13:56;;;;;;;2.30;2.10;;;;;;;;;;6064175;23;20046;-39
2022/11/13 04:16:21;;;;;;;5.95;2.08;;;;;;;;;;6066685;23;20034;-39
2022/11/13 04:18:47;;;;;;;4.38;2.25;;;;;;;;;;6066226;23;20434;-39
2022/11/13 04:21:12;;;;;;;2.17;1.98;;;;;;;;;;6066952;23;20007;-39
2022/11/13 04:23:37;;;;;;;2.83;1.80;;;;;;;;;;6066185;23;20529;-39
2022/11/13 04:26:04;;;;;;;2.17;1.98;;;;;;;;;;6067641;23;20338;-39
2022/11/13 04:28:29;;;;;;;2.90;1.95;;;;;;;;;;6066100;23;20066;-39
2022/11/13 04:30:56;;;;;;;2.30;1.80;;;;;;;;;;6066862;23;20007;-39
2022/11/13 04:33:21;;;;;;;3.75;1.98;;;;;;;;;;6065915;23;20030;-39
2022/11/13 04:35:47;;;;;;;5.13;1.95;;;;;;;;;;6066636;23;20566;-39
2022/11/13 04:38:13;;;;;;;2.60;2.03;;;;;;;;;;6066630;23;20354;-39
2022/11/13 04:40:39;;;;;;;2.35;1.80;;;;;;;;;;6067100;23;20461;-38
2022/11/13 04:43:05;;;;;;;1.90;1.80;;;;;;;;;;6065741;23;20011;-39
2022/11/13 04:45:31;;;;;;;2.78;1.90;;;;;;;;;;6067158;23;20014;-39
2022/11/13 04:47:56;;;;;;;2.00;1.90;;;;;;;;;;6065795;23;20082;-39
2022/11/13 04:50:22;;;;;;;4.60;1.67;;;;;;;;;;6066778;23;20058;-40
2022/11/13 04:52:47;;;;;;;2.03;1.92;;;;;;;;;;6065793;23;20046;-39
2022/11/13 04:55:13;;;;;;;2.33;1.85;;;;;;;;;;6065443;23;20035;-39
2022/11/13 04:57:39;;;;;;;2.72;2.10;;;;;;;;;;6066289;23;20003;-39
2022/11/13 05:00:06;;;;;;;2.20;2.10;;;;;;;;;;6065981;23;20030;-39
2022/11/13 05:02:31;;;;;;;2.88;1.80;;;;;;;;;;6066391;23;20014;-39
2022/11/13 05:04:57;;;;;;;3.08;1.90;;;;;;;;;;6066113;23;20450;-39
2022/11/13 05:07:22;;;;;;;2.22;1.70;;;;;;;;;;6066725;23;20002;-39
2022/11/13 05:09:48;;;;;;;3.95;1.92;;;;;;;;;;6065485;23;20106;-39
2022/11/13 05:12:13;;;;;;;1.70;1.60;;;;;;;;;;6066468;23;20085;-39
2022/11/13 05:14:39;;;;;;;3.55;2.50;;;;;;;;;;6065915;23;20038;-39
2022/11/13 05:17:06;;;;;;;9.10;2.30;;;;;;;;;;6067006;23;20433;-39
2022/11/13 05:19:32;;;;;;;2.50;2.30;;;;;;;;;;6065928;23;20096;-44
2022/11/13 05:21:57;;;;;;;3.03;2.47;;;;;;;;;;6066416;23;20003;-39
2022/11/13 05:24:23;;;;;;;4.40;2.45;;;;;;;;;;6065075;23;20023;-39
2022/11/13 05:26:49;;;;;;;2.45;2.25;;;;;;;;;;6065825;23;20037;-39
2022/11/13 05:29:14;;;;;;;3.58;2.00;;;;;;;;;;6065917;23;20045;-40
2022/11/13 05:31:40;;;;;;;2.15;1.98;;;;;;;;;;6066737;23;20477;-39
2022/11/13 05:34:05;;;;;;;3.58;2.40;;;;;;;;;;6065762;23;20041;-40
2022/11/13 05:36:31;;;;;;;4.25;2.30;;;;;;;;;;6066413;23;20010;-39
2022/11/13 05:38:56;;;;;;;4.53;2.35;;;;;;;;;;6065482;23;20023;-40
2022/11/13 05:41:22;;;;;;;2.97;2.00;;;;;;;;;;6065675;23;20014;-40
2022/11/13 05:43:48;;;;;;;2.80;2.08;;;;;;;;;;6065846;23;20458;-39
2022/11/13 05:46:20;;;;;;;3.85;2.03;;;;;;;;;;6066414;23;20006;-39
2022/11/13 05:48:46;;;;;;;;;;;;;;;;;;6066435;23;20470;-39
2022/11/13 05:51:17;;;;;;;1.95;1.85;;;;;;;;;;6065905;23;19918;-39
2022/11/13 05:53:43;;;;;;;3.22;2.17;;;;;;;;;;6065064;23;20051;-39
2022/11/13 05:56:14;;;;;;;4.13;1.90;;;;;;;;;;6066078;23;20003;-41
2022/11/13 05:58:41;;;;;;;2.67;2.20;;;;;;;;;;6065493;23;20023;-40
2022/11/13 06:01:11;;;;;;;2.20;2.00;;;;;;;;;;6065931;23;20511;-39
2022/11/13 06:03:37;;;;;;;4.00;2.00;;;;;;;;;;6065604;23;20018;-39
2022/11/13 06:06:04;;;;;;;4.03;2.05;;;;;;;;;;6065606;23;20013;-39
2022/11/13 06:08:30;;;;;;;2.42;2.00;;;;;;;;;;6065262;23;20026;-39
2022/11/13 06:11:00;;;;;;;1.80;1.70;;;;;;;;;;6065939;23;20006;-39
2022/11/13 06:13:26;;;;;;;3.67;2.67;;;;;;;;;;6065525;23;20022;-39
2022/11/13 06:15:52;;;;;;;4.85;2.00;;;;;;;;;;6066068;23;20006;-39
2022/11/13 06:18:22;;;;;;;1.92;1.83;;;;;;;;;;6065679;23;20019;-39
2022/11/13 06:20:48;;;;;;;3.25;1.60;;;;;;;;;;6065396;23;20038;-39
2022/11/13 06:23:13;;;;;;;10.18;1.88;;;;;;;;;;6065232;23;20014;-38
2022/11/13 06:25:38;;;;;;;2.17;1.70;;;;;;;;;;6065991;23;20003;-39
2022/11/13 06:28:04;;;;;;;2.30;1.67;;;;;;;;;;6065125;23;20007;-39
2022/11/13 06:30:29;;;;;;;1.88;1.52;;;;;;;;;;6066128;23;19999;-39
2022/11/13 06:32:54;;;;;;;1.83;1.70;;;;;;;;;;6065223;23;20006;-40
2022/11/13 06:35:20;;;;;;;1.73;1.55;;;;;;;;;;6065690;23;20449;-39
2022/11/13 06:37:45;;;;;;;2.20;2.00;;;;;;;;;;6065102;23;20007;-41
2022/11/13 06:40:11;;;;;;;2.50;2.05;;;;;;;;;;6064736;23;20510;-39
2022/11/13 06:42:37;;;;;;;2.35;2.10;;;;;;;;;;6066094;23;20006;-39
2022/11/13 06:45:02;;;;;;;7.40;1.95;;;;;;;;;;6065113;23;20030;-42
2022/11/13 06:47:28;;;;;;;2.85;1.83;;;;;;;;;;6065625;23;20013;-39
2022/11/13 06:49:53;;;;;;;5.88;1.98;;;;;;;;;;6064584;23;20082;-39
2022/11/13 06:52:18;;;;;;;3.72;2.03;;;;;;;;;;6065677;23;20002;-39
2022/11/13 06:54:44;;;;;;;2.17;1.95;;;;;;;;;;6064634;23;20441;-41
2022/11/13 06:57:09;;;;;;;3.78;2.42;;;;;;;;;;6065823;23;20031;-39
2022/11/13 06:59:35;;;;;;;2.72;2.45;;;;;;;;;;6064986;23;20015;-41
2022/11/13 07:02:01;;;;;;;5.25;3.47;;;;;;;;;;6065455;23;20039;-39
2022/11/13 07:04:26;;;;;;;4.50;2.63;;;;;;;;;;6064501;23;20023;-38
2022/11/13 07:06:51;;;;;;;2.88;2.38;;;;;;;;;;6065251;23;20054;-39
2022/11/13 07:09:17;;;;;;;2.65;2.45;;;;;;;;;;6065032;23;20019;-39
2022/11/13 07:11:42;;;;;;;3.08;2.83;;;;;;;;;;6039895;23;20011;-39
2022/11/13 07:14:10;;;;;;;6.80;2.72;;;;;;;;;;6065036;23;20030;-39
2022/11/13 07:16:36;;;;;;;4.32;2.80;;;;;;;;;;6065920;23;20007;-40
2022/11/13 07:19:01;;;;;;;6.90;3.20;;;;;;;;;;6064382;23;20023;-39
2022/11/13 07:21:26;;;;;;;4.05;3.47;;;;;;;;;;6065409;23;20346;-39
2022/11/13 07:23:52;;;;;;;4.07;3.20;;;;;;;;;;6064085;23;20019;-39
2022/11/13 07:26:18;;;;;;;3.40;3.10;;;;;;;;;;6065543;23;20003;-40
2022/11/13 07:28:44;;;;;;;7.60;3.90;;;;;;;;;;6065233;23;20440;-39
2022/11/13 07:31:11;;;;;;;7.60;5.22;;;;;;;;;;6065131;23;20034;-39
2022/11/13 07:33:36;;;;;;;10.75;6.00;;;;;;;;;;6064753;23;20019;-40
2022/11/13 07:36:02;;;;;;;7.68;5.22;;;;;;;;;;6065101;23;20006;-39
2022/11/13 07:38:27;;;;;;;6.38;5.25;;;;;;;;;;6064525;23;20022;-39
2022/11/13 07:40:53;;;;;;;9.55;4.97;;;;;;;;;;6065664;23;20029;-39
2022/11/13 07:43:18;;;;;;;9.25;3.72;;;;;;;;;;6063414;23;20058;-39
2022/11/13 07:45:44;;;;;;;4.82;3.47;;;;;;;;;;6064564;23;20007;-39
2022/11/13 07:48:10;;;;;;;4.95;3.13;;;;;;;;;;6064431;23;20422;-40
2022/11/13 07:50:36;;;;;;;7.15;3.30;;;;;;;;;;6066627;23;20450;-39
2022/11/13 07:53:04;;;;;;;7.72;3.50;;;;;;;;;;6066325;23;20086;-41
2022/11/13 07:55:30;;;;;;;5.63;3.28;;;;;;;;;;6066951;23;19995;-39
2022/11/13 07:57:57;;;;;;;4.45;3.53;;;;;;;;;;6066898;23;20002;-39
2022/11/13 08:00:23;;;;;;;8.60;4.10;;;;;;;;;;6062430;23;20652;-39
2022/11/13 08:02:49;;;;;;;6.90;5.05;;;;;;;;;;6064007;23;20466;-40
2022/11/13 08:05:14;;;;;;;5.88;4.43;;;;;;;;;;6063453;23;20026;-42
2022/11/13 08:07:40;;;;;;;9.50;4.72;;;;;;;;;;6067376;23;20051;-42
2022/11/13 08:10:05;;;;;;;7.13;4.38;;;;;;;;;;6066025;23;20029;-41
2022/11/13 08:12:31;;;;;;;6.25;4.20;;;;;;;;;;6066657;23;20489;-41
2022/11/13 08:14:56;;;;;;;3.47;3.17;;;;;;;;;;6066261;23;20346;-42
2022/11/13 08:17:21;;;;;;;3.45;3.00;;;;;;;;;;6066715;23;20039;-41
2022/11/13 08:19:47;;;;;;;6.55;3.75;;;;;;;;;;6066340;23;20071;-41
2022/11/13 08:22:12;;;;;;;5.63;4.68;;;;;;;;;;6067055;23;20464;-41
2022/11/13 08:24:37;;;;;;;4.57;3.90;;;;;;;;;;6066446;23;20019;-41
2022/11/13 08:27:03;;;;;;;4.65;3.80;;;;;;;;;;6065829;23;20011;-41
2022/11/13 08:29:28;;;;;;;5.47;3.80;;;;;;;;;;6066270;23;20030;-41
2022/11/13 08:31:54;;;;;;;4.78;3.63;;;;;;;;;;6067055;23;20516;-41
2022/11/13 08:34:19;;;;;;;4.22;3.78;;;;;;;;;;6066132;23;20019;-42
2022/11/13 08:36:47;;;;;;;6.88;4.45;;;;;;;;;;6067011;23;20422;-43
2022/11/13 08:39:13;;;;;;;9.93;5.40;;;;;;;;;;6066615;23;20509;-43
2022/11/13 08:41:38;;;;;;;8.43;5.25;;;;;;;;;;6066182;23;20038;-42
2022/11/13 08:44:04;;;;;;;8.82;5.53;;;;;;;;;;6066277;23;20043;-41
2022/11/13 08:46:29;;;;;;;8.02;5.10;;;;;;;;;;6066696;23;20035;-42
2022/11/13 08:48:55;;;;;;;13.38;5.97;;;;;;;;;;6065350;23;20023;-41
2022/11/13 08:51:20;;;;;;;19.48;8.95;;;;;;;;;;6067047;23;20326;-42
2022/11/13 08:53:46;;;;;;;29.95;14.25;;;;;;;;;;6066372;23;20026;-42
2022/11/13 08:56:11;;;;;;;31.98;15.30;;;;;;;;;;6066457;23;20006;-42
2022/11/13 08:58:37;;;;;;;28.88;14.15;;;;;;;;;;6065794;23;20019;-42
2022/11/13 09:01:03;;;;;;;34.28;15.73;;;;;;;;;;6040768;23;20006;-41
2022/11/13 09:03:28;;;;;;;30.58;15.13;;;;;;;;;;6065740;23;20030;-42
2022/11/13 09:05:53;;;;;;;30.70;15.50;;;;;;;;;;6041107;23;20098;-41
2022/11/13 09:08:19;;;;;;;34.63;14.43;;;;;;;;;;6066213;23;20018;-42
2022/11/13 09:10:44;;;;;;;25.70;13.20;;;;;;;;;;6066216;23;20042;-44
2022/11/13 09:13:10;;;;;;;26.50;13.68;;;;;;;;;;6065755;23;20102;-41
2022/11/13 09:15:37;;;;;;;28.88;13.30;;;;;;;;;;6066827;23;20003;-41
2022/11/13 09:18:03;;;;;;;36.17;19.35;;;;;;;;;;6065739;23;20092;-41
2022/11/13 09:20:30;;;;;;;34.00;18.65;;;;;;;;;;6066533;23;20031;-41
2022/11/13 09:23:04;;;;;;;39.83;18.50;;;;;;;;;;6065953;23;20029;-41
2022/11/13 09:25:30;;;;;;;30.77;15.73;;;;;;;;;;6066511;23;20007;-41
2022/11/13 09:28:00;;;;;;;27.10;13.80;;;;;;;;;;6064853;23;20070;-40
2022/11/13 09:30:27;;;;;;;31.42;14.63;;;;;;;;;;6066819;23;19999;-41
2022/11/13 09:32:56;;;;;;;26.25;12.88;;;;;;;;;;6065375;23;20017;-41
2022/11/13 09:35:33;;;;;;;34.03;14.90;;;;;;;;;;6066660;23;20003;-41
2022/11/13 09:38:03;;;;;;;26.45;11.77;;;;;;;;;;6066221;23;20007;-41
2022/11/13 09:40:48;;;;;;;15.85;9.02;;;;;;;;;;6065993;23;20007;-41
2022/11/13 09:43:25;;;;;;;12.07;7.15;;;;;;;;;;6064928;23;20533;-41
2022/11/13 09:45:55;;;;;;;8.40;5.20;;;;;;;;;;6065762;23;20003;-41
2022/11/13 09:48:51;;;;;;;5.78;4.70;;;;;;;;;;6064709;23;20039;-42
2022/11/13 09:51:24;;;;;;;6.38;4.60;;;;;;;;;;6061223;23;20007;-41
2022/11/13 09:53:50;;;;;;;12.85;4.65;;;;;;;;;;6064675;23;20019;-42
2022/11/13 09:56:37;;;;;;;11.73;4.95;;;;;;;;;;6066150;23;20063;-41
2022/11/13 09:59:02;;;;;;;4.78;3.63;;;;;;;;;;6065144;23;20019;-41
2022/11/13 10:01:52;;;;;;;6.22;2.80;;;;;;;;;;6065058;23;20002;-41
2022/11/13 10:04:45;;;;;;;2.75;2.50;;;;;;;;;;6065701;23;20026;-42
2022/11/13 10:07:39;;;;;;;2.30;2.08;;;;;;;;;;6064726;23;20033;-41
2022/11/13 10:10:26;;;;;;;3.15;2.47;;;;;;;;;;6065059;23;20019;-41
2022/11/13 10:12:55;;;;;;;2.83;2.58;;;;;;;;;;6064839;23;20007;-40
2022/11/13 10:15:20;;;;;;;2.65;2.45;;;;;;;;;;6066450;23;20008;-41
2022/11/13 10:17:55;;;;;;;3.22;2.75;;;;;;;;;;6065326;23;20007;-41
2022/11/13 10:20:36;;;;;;;1.92;1.83;;;;;;;;;;6065771;23;20454;-41
2022/11/13 10:23:17;;;;;;;3.00;2.25;;;;;;;;;;6066061;23;20093;-42
2022/11/13 10:25:44;;;;;;;3.50;2.47;;;;;;;;;;6064986;23;20146;-42
2022/11/13 10:28:22;;;;;;;2.40;2.20;;;;;;;;;;6063335;23;20019;-41
2022/11/13 10:30:49;;;;;;;3.05;2.70;;;;;;;;;;6064086;23;20003;-41
2022/11/13 10:33:21;;;;;;;4.35;2.47;;;;;;;;;;6059382;23;20019;-42
2022/11/13 10:36:05;;;;;;;4.18;2.30;;;;;;;;;;6064610;23;20014;-41
2022/11/13 10:38:48;;;;;;;4.07;2.30;;;;;;;;;;6065316;23;20323;-41
2022/11/13 10:41:17;;;;;;;5.85;2.20;;;;;;;;;;6065223;23;20082;-41
2022/11/13 10:43:49;;;;;;;2.20;2.00;;;;;;;;;;6065236;23;20021;-42
2022/11/13 10:46:20;;;;;;;4.00;2.15;;;;;;;;;;6064468;23;20058;-41
2022/11/13 10:48:46;;;;;;;3.75;1.98;;;;;;;;;;6065043;23;20067;-42
2022/11/13 10:51:29;;;;;;;2.67;2.08;;;;;;;;;;6064743;23;20007;-41
2022/11/13 10:53:57;;;;;;;4.22;2.33;;;;;;;;;;6064931;23;20018;-41
2022/11/13 10:56:31;;;;;;;5.70;1.98;;;;;;;;;;6064475;23;20009;-41
2022/11/13 10:59:13;;;;;;;2.45;1.70;;;;;;;;;;6065006;23;20029;-41
2022/11/13 11:01:40;;;;;;;3.28;1.90;;;;;;;;;;6065460;23;20445;-41
2022/11/13 11:04:10;;;;;;;3.70;2.10;;;;;;;;;;6064453;23;20046;-41
2022/11/13 11:06:38;;;;;;;2.75;2.47;;;;;;;;;;6064905;23;20006;-41
2022/11/13 11:09:19;;;;;;;5.03;2.40;;;;;;;;;;6065157;23;20022;-42
2022/11/13 11:12:17;;;;;;;4.07;2.25;;;;;;;;;;6065820;23;20017;-41
2022/11/13 11:14:55;;;;;;;4.28;2.63;;;;;;;;;;6063944;23;20098;-41
2022/11/13 11:17:25;;;;;;;2.72;2.47;;;;;;;;;;6064968;23;20026;-43
2022/11/13 11:20:06;;;;;;;5.20;1.92;;;;;;;;;;6064996;23;20014;-41
2022/11/13 11:22:35;;;;;;;2.95;2.08;;;;;;;;;;6065871;23;20003;-41
2022/11/13 11:25:05;;;;;;;2.60;2.30;;;;;;;;;;6064516;23;20046;-42
2022/11/13 11:27:44;;;;;;;2.25;2.05;;;;;;;;;;6065328;23;20062;-42
2022/11/13 11:30:18;;;;;;;2.72;2.15;;;;;;;;;;6064196;23;20022;-41
2022/11/13 11:32:59;;;;;;;3.85;1.85;;;;;;;;;;6065334;23;20086;-42
2022/11/13 11:35:39;;;;;;;3.25;2.25;;;;;;;;;;6064782;23;20034;-41
2022/11/13 11:38:27;;;;;;;4.07;2.30;;;;;;;;;;6064814;23;20078;-41
2022/11/13 11:41:01;;;;;;;2.25;1.70;;;;;;;;;;6065362;23;20011;-42
2022/11/13 11:44:00;;;;;;;2.40;2.20;;;;;;;;;;6065094;23;20094;-41
2022/11/13 11:46:28;;;;;;;3.88;2.20;;;;;;;;;;6064532;23;20010;-42
2022/11/13 11:48:58;;;;;;;4.20;2.20;;;;;;;;;;6064936;23;20094;-42
2022/11/13 11:51:38;;;;;;;2.13;1.90;;;;;;;;;;6064671;23;20026;-41
2022/11/13 11:54:17;;;;;;;3.42;2.13;;;;;;;;;;6064866;23;20027;-42
2022/11/13 11:56:51;;;;;;;3.58;2.00;;;;;;;;;;6064103;23;20003;-41
2022/11/13 11:59:25;;;;;;;4.40;2.80;;;;;;;;;;6064105;23;20015;-42
2022/11/13 12:01:53;;;;;;;2.65;2.10;;;;;;;;;;6064735;23;20090;-41
2022/11/13 12:04:54;;;;;;;2.53;1.80;;;;;;;;;;6065288;23;20026;-43
2022/11/13 12:07:53;;;;;;;2.78;2.13;;;;;;;;;;6065372;23;20069;-43
2022/11/13 12:10:39;;;;;;;4.03;2.22;;;;;;;;;;6062917;23;20094;-41
2022/11/13 12:13:27;;;;;;;8.95;2.30;;;;;;;;;;6063595;23;19999;-41
2022/11/13 12:16:19;;;;;;;5.10;2.47;;;;;;;;;;6063648;23;20014;-41
2022/11/13 12:18:53;;;;;;;4.85;3.38;;;;;;;;;;5948551;24;20086;-42
2022/11/13 12:21:23;;;;;;;9.90;2.80;;;;;;;;;;5949485;24;20058;-41
2022/11/13 12:24:04;;;;;;;3.90;3.00;;;;;;;;;;5949203;24;20032;-41
2022/11/13 12:26:43;;;;;;;3.50;1.93;;;;;;;;;;5949167;24;20472;-41
2022/11/13 12:29:14;;;;;;;4.70;2.35;;;;;;;;;;5948751;24;20024;-42
2022/11/13 12:31:45;;;;;;;7.43;2.50;;;;;;;;;;5949272;24;20613;-43
2022/11/13 12:34:16;;;;;;;4.75;2.45;;;;;;;;;;5948457;24;20032;-42
2022/11/13 12:36:42;;;;;;;3.72;2.30;;;;;;;;;;5950110;24;20013;-41
2022/11/13 12:39:29;;;;;;;8.45;2.80;;;;;;;;;;5950704;24;20023;-42
2022/11/13 12:42:19;;;;;;;3.67;2.60;;;;;;;;;;5950808;24;20016;-42
2022/11/13 12:44:47;;;;;;;5.72;2.78;;;;;;;;;;5949958;24;20036;-42
2022/11/13 12:47:13;;;;;;;5.55;2.53;;;;;;;;;;5950990;24;20016;-43
2022/11/13 12:49:38;;;;;;;7.70;2.35;;;;;;;;;;5950508;24;20100;-41
2022/11/13 12:52:17;;;;;;;3.30;2.22;;;;;;;;;;5950898;24;20534;-43
2022/11/13 12:54:42;;;;;;;6.85;2.60;;;;;;;;;;5952159;23;20480;-41
2022/11/13 12:57:16;;;;;;;4.85;2.40;;;;;;;;;;6063565;23;20041;-41
2022/11/13 12:59:47;;;;;;;8.40;2.38;;;;;;;;;;6064540;23;20212;-41
2022/11/13 13:02:12;;;;;;;5.78;2.08;;;;;;;;;;6064531;23;20025;-41
2022/11/13 13:04:43;;;;;;;5.15;2.40;;;;;;;;;;6063939;23;20023;-41
2022/11/13 13:07:18;;;;;;;8.25;2.58;;;;;;;;;;6065513;23;20307;-43
2022/11/13 13:10:16;;;;;;;10.98;2.67;;;;;;;;;;6064063;23;20018;-42
2022/11/13 13:12:53;;;;;;;5.05;2.45;;;;;;;;;;6004160;23;20015;-41
2022/11/13 13:15:27;;;;;;;3.70;2.17;;;;;;;;;;6003800;23;20024;-42
2022/11/13 13:18:07;;;;;;;8.13;2.78;;;;;;;;;;6004780;23;20079;-40
2022/11/13 13:20:40;;;;;;;3.78;2.15;;;;;;;;;;6004316;23;20091;-42
2022/11/13 13:23:10;;;;;;;11.85;4.55;;;;;;;;;;6003635;23;20015;-41
2022/11/13 13:25:36;;;;;;;11.05;5.03;;;;;;;;;;6004697;23;20083;-41
2022/11/13 13:28:20;;;;;;;11.50;4.75;;;;;;;;;;6004087;23;20431;-41
2022/11/13 13:31:18;;;;;;;10.18;4.72;;;;;;;;;;6004805;23;20335;-42
2022/11/13 13:33:52;;;;;;;7.35;4.68;;;;;;;;;;6004267;23;20181;-42
2022/11/13 13:36:22;;;;;;;10.55;5.07;;;;;;;;;;6004642;23;20014;-41
2022/11/13 13:39:06;;;;;;;7.28;4.30;;;;;;;;;;6002914;23;20035;-41
2022/11/13 13:41:59;;;;;;;6.75;3.80;;;;;;;;;;6004801;23;20022;-42
2022/11/13 13:44:51;;;;;;;10.18;4.30;;;;;;;;;;6003345;23;20028;-41
2022/11/13 13:47:33;;;;;;;6.60;3.47;;;;;;;;;;5976421;24;20542;-41
2022/11/13 13:49:59;;;;;;;7.43;3.78;;;;;;;;;;6017277;23;20028;-41
2022/11/13 13:52:32;;;;;;;6.53;3.67;;;;;;;;;;6033649;23;20011;-41
2022/11/13 13:55:00;;;;;;;7.75;4.10;;;;;;;;;;6056620;23;20094;-41
2022/11/13 13:57:27;;;;;;;10.52;3.97;;;;;;;;;;6061494;23;20003;-42
2022/11/13 13:59:52;;;;;;;8.38;3.58;;;;;;;;;;6061346;23;20059;-43
2022/11/13 14:02:21;;;;;;;11.05;4.47;;;;;;;;;;6061434;23;20538;-42
2022/11/13 14:04:52;;;;;;;9.27;4.28;;;;;;;;;;6060868;23;20542;-41
2022/11/13 14:07:26;;;;;;;13.13;4.72;;;;;;;;;;6062154;23;20074;-42
2022/11/13 14:10:17;;;;;;;9.70;4.40;;;;;;;;;;6060062;23;20086;-42
2022/11/13 14:12:44;;;;;;;7.70;3.30;;;;;;;;;;6061448;23;20078;-41
2022/11/13 14:15:24;;;;;;;5.28;3.15;;;;;;;;;;6061146;23;20129;-41
2022/11/13 14:17:50;;;;;;;7.55;3.20;;;;;;;;;;6060826;23;20255;-41
2022/11/13 14:20:16;;;;;;;5.18;3.17;;;;;;;;;;6061138;23;20023;-41
2022/11/13 14:22:45;;;;;;;11.95;3.00;;;;;;;;;;6061297;23;20019;-41
2022/11/13 14:25:20;;;;;;;7.72;3.22;;;;;;;;;;6088776;23;20018;-41
2022/11/13 14:27:46;;;;;;;4.65;3.20;;;;;;;;;;6093027;23;20615;-42
2022/11/13 14:30:26;;;;;;;6.00;4.00;;;;;;;;;;6065283;23;20023;-41
2022/11/13 14:32:52;;;;;;;9.75;4.53;;;;;;;;;;6063532;23;20479;-41
2022/11/13 14:35:23;;;;;;;8.13;3.92;;;;;;;;;;6092826;23;20073;-42
2022/11/13 14:37:51;;;;;;;8.65;5.55;;;;;;;;;;6093000;23;20375;-41
2022/11/13 14:40:31;;;;;;;6.22;5.30;;;;;;;;;;6064245;23;20473;-42
2022/11/13 14:43:00;;;;;;;13.93;7.32;;;;;;;;;;6062934;23;20090;-42
2022/11/13 14:45:31;;;;;;;8.18;6.20;;;;;;;;;;6064014;23;20010;-41
2022/11/13 14:48:18;;;;;;;7.07;5.10;;;;;;;;;;6064026;23;19999;-41
2022/11/13 14:50:50;;;;;;;11.82;4.03;;;;;;;;;;6064271;23;20117;-41
2022/11/13 14:53:38;;;;;;;6.07;3.50;;;;;;;;;;6063793;23;20018;-41
2022/11/13 14:56:09;;;;;;;6.97;3.78;;;;;;;;;;6064382;23;20010;-41